sensor_id;sensor_type;location;lat;lon;timestamp;pressure;altitude;pressure_sealevel;temperature;humidity
55466;BME280;41329;41.594;23.810;2022-12-10T00:01:08;94891.81;;;10.65;79.04
55466;BME280;41329;41.594;23.810;2022-12-10T00:03:35;94934.66;;;10.85;78.90
55466;BME280;41329;41.594;23.810;2022-12-10T00:06:06;94890.63;;;10.66;78.88
55466;BME280;41329;41.594;23.810;2022-12-10T00:08:33;94896.59;;;10.72;79.06
55466;BME280;41329;41.594;23.810;2022-12-10T00:10:58;94916.50;;;10.88;79.07
55466;BME280;41329;41.594;23.810;2022-12-10T00:13:24;94914.91;;;10.87;79.17
55466;BME280;41329;41.594;23.810;2022-12-10T00:15:49;94902.59;;;10.77;79.13
55466;BME280;41329;41.594;23.810;2022-12-10T00:18:14;94907.78;;;10.86;79.19
55466;BME280;41329;41.594;23.810;2022-12-10T00:20:40;94872.00;;;10.60;79.04
55466;BME280;41329;41.594;23.810;2022-12-10T00:23:06;94906.22;;;10.88;78.99
55466;BME280;41329;41.594;23.810;2022-12-10T00:25:32;94906.97;;;10.85;79.34
55466;BME280;41329;41.594;23.810;2022-12-10T00:27:57;94886.31;;;10.69;79.41
55466;BME280;41329;41.594;23.810;2022-12-10T00:30:23;94899.81;;;10.77;79.60
55466;BME280;41329;41.594;23.810;2022-12-10T00:32:48;94903.00;;;10.79;79.70
55466;BME280;41329;41.594;23.810;2022-12-10T00:35:14;94908.53;;;10.79;79.81
55466;BME280;41329;41.594;23.810;2022-12-10T00:37:39;94906.13;;;10.78;79.93
55466;BME280;41329;41.594;23.810;2022-12-10T00:40:05;94908.50;;;10.76;80.13
55466;BME280;41329;41.594;23.810;2022-12-10T00:42:34;94918.00;;;10.78;80.38
55466;BME280;41329;41.594;23.810;2022-12-10T00:45:00;94916.84;;;10.83;80.50
55466;BME280;41329;41.594;23.810;2022-12-10T00:47:25;94917.97;;;10.75;80.76
55466;BME280;41329;41.594;23.810;2022-12-10T00:49:51;94932.63;;;10.79;80.64
55466;BME280;41329;41.594;23.810;2022-12-10T00:52:16;94917.19;;;10.78;81.07
55466;BME280;41329;41.594;23.810;2022-12-10T00:54:41;94917.28;;;10.85;81.38
55466;BME280;41329;41.594;23.810;2022-12-10T00:57:07;94918.13;;;10.92;81.07
55466;BME280;41329;41.594;23.810;2022-12-10T00:59:32;94903.88;;;10.94;81.27
55466;BME280;41329;41.594;23.810;2022-12-10T01:01:58;94899.53;;;10.93;81.76
55466;BME280;41329;41.594;23.810;2022-12-10T01:04:23;94895.59;;;10.97;81.71
55466;BME280;41329;41.594;23.810;2022-12-10T01:06:51;94899.97;;;10.98;82.15
55466;BME280;41329;41.594;23.810;2022-12-10T01:09:19;94895.25;;;11.02;82.41
55466;BME280;41329;41.594;23.810;2022-12-10T01:11:46;94892.44;;;10.95;82.47
55466;BME280;41329;41.594;23.810;2022-12-10T01:14:19;94900.06;;;11.09;82.15
55466;BME280;41329;41.594;23.810;2022-12-10T01:16:45;94894.16;;;11.14;81.96
55466;BME280;41329;41.594;23.810;2022-12-10T01:19:11;94891.00;;;11.15;82.04
55466;BME280;41329;41.594;23.810;2022-12-10T01:21:36;94881.47;;;11.13;81.55
55466;BME280;41329;41.594;23.810;2022-12-10T01:24:03;94891.41;;;11.21;81.55
55466;BME280;41329;41.594;23.810;2022-12-10T01:26:31;94873.22;;;11.23;81.50
55466;BME280;41329;41.594;23.810;2022-12-10T01:28:58;94870.44;;;11.20;81.45
55466;BME280;41329;41.594;23.810;2022-12-10T01:31:35;94836.72;;;11.00;81.17
55466;BME280;41329;41.594;23.810;2022-12-10T01:34:02;94848.66;;;11.15;80.94
55466;BME280;41329;41.594;23.810;2022-12-10T01:36:33;94874.91;;;11.35;80.92
55466;BME280;41329;41.594;23.810;2022-12-10T01:39:00;94881.63;;;11.37;80.69
55466;BME280;41329;41.594;23.810;2022-12-10T01:41:33;94870.94;;;11.36;80.71
55466;BME280;41329;41.594;23.810;2022-12-10T01:44:02;94863.03;;;11.38;80.65
55466;BME280;41329;41.594;23.810;2022-12-10T01:46:31;94873.75;;;11.43;80.71
55466;BME280;41329;41.594;23.810;2022-12-10T01:48:58;94881.66;;;11.41;80.91
55466;BME280;41329;41.594;23.810;2022-12-10T01:51:29;94861.00;;;11.31;80.95
55466;BME280;41329;41.594;23.810;2022-12-10T01:53:55;94857.84;;;11.29;80.73
55466;BME280;41329;41.594;23.810;2022-12-10T01:56:21;94863.41;;;11.33;80.07
55466;BME280;41329;41.594;23.810;2022-12-10T01:58:49;94862.25;;;11.41;80.02
55466;BME280;41329;41.594;23.810;2022-12-10T02:04:20;94835.31;;;11.31;80.10
55466;BME280;41329;41.594;23.810;2022-12-10T02:06:55;94827.72;;;11.17;80.83
55466;BME280;41329;41.594;23.810;2022-12-10T02:12:57;94860.19;;;11.20;81.72
55466;BME280;41329;41.594;23.810;2022-12-10T02:14:58;94857.47;;;11.31;81.48
55466;BME280;41329;41.594;23.810;2022-12-10T02:17:36;94847.16;;;11.31;81.42
55466;BME280;41329;41.594;23.810;2022-12-10T02:20:11;94842.44;;;11.28;81.58
55466;BME280;41329;41.594;23.810;2022-12-10T02:23:03;94855.09;;;11.33;81.60
55466;BME280;41329;41.594;23.810;2022-12-10T02:25:39;94837.28;;;11.30;81.53
55466;BME280;41329;41.594;23.810;2022-12-10T02:30:45;94833.75;;;11.33;80.90
55466;BME280;41329;41.594;23.810;2022-12-10T02:33:13;94831.38;;;11.35;80.72
55466;BME280;41329;41.594;23.810;2022-12-10T02:35:40;94813.50;;;11.22;80.79
55466;BME280;41329;41.594;23.810;2022-12-10T02:38:22;94809.84;;;11.08;81.08
55466;BME280;41329;41.594;23.810;2022-12-10T02:40:55;94829.72;;;11.20;80.98
55466;BME280;41329;41.594;23.810;2022-12-10T02:43:23;94832.88;;;11.22;80.92
55466;BME280;41329;41.594;23.810;2022-12-10T02:45:51;94818.66;;;11.20;80.69
55466;BME280;41329;41.594;23.810;2022-12-10T02:48:17;94799.09;;;10.96;81.17
55466;BME280;41329;41.594;23.810;2022-12-10T02:50:44;94814.56;;;11.04;80.96
55466;BME280;41329;41.594;23.810;2022-12-10T02:53:09;94823.69;;;11.01;80.85
55466;BME280;41329;41.594;23.810;2022-12-10T02:55:55;94812.94;;;10.96;80.48
55466;BME280;41329;41.594;23.810;2022-12-10T03:03:57;94833.97;;;10.50;81.97
55466;BME280;41329;41.594;23.810;2022-12-10T03:06:36;94830.03;;;10.51;82.31
55466;BME280;41329;41.594;23.810;2022-12-10T03:09:07;94822.13;;;10.49;82.26
55466;BME280;41329;41.594;23.810;2022-12-10T03:11:34;94824.88;;;10.46;82.59
55466;BME280;41329;41.594;23.810;2022-12-10T03:14:03;94788.88;;;10.39;82.77
55466;BME280;41329;41.594;23.810;2022-12-10T03:16:39;94800.06;;;10.56;83.87
55466;BME280;41329;41.594;23.810;2022-12-10T03:19:11;94782.22;;;10.50;84.68
55466;BME280;41329;41.594;23.810;2022-12-10T03:21:38;94793.44;;;10.71;85.01
55466;BME280;41329;41.594;23.810;2022-12-10T03:24:06;94787.97;;;10.82;85.54
55466;BME280;41329;41.594;23.810;2022-12-10T03:26:32;94784.44;;;10.85;86.08
55466;BME280;41329;41.594;23.810;2022-12-10T03:29:13;94784.00;;;10.79;84.55
55466;BME280;41329;41.594;23.810;2022-12-10T03:31:40;94808.97;;;10.90;83.05
55466;BME280;41329;41.594;23.810;2022-12-10T03:34:09;94810.91;;;10.82;82.30
55466;BME280;41329;41.594;23.810;2022-12-10T03:36:36;94801.81;;;10.85;82.23
55466;BME280;41329;41.594;23.810;2022-12-10T03:39:02;94812.88;;;10.85;82.55
55466;BME280;41329;41.594;23.810;2022-12-10T03:41:28;94816.47;;;10.89;83.31
55466;BME280;41329;41.594;23.810;2022-12-10T03:43:56;94809.78;;;10.90;83.72
55466;BME280;41329;41.594;23.810;2022-12-10T03:46:23;94810.53;;;10.87;83.19
55466;BME280;41329;41.594;23.810;2022-12-10T03:48:51;94822.03;;;10.93;82.47
55466;BME280;41329;41.594;23.810;2022-12-10T03:51:17;94823.13;;;10.81;82.54
55466;BME280;41329;41.594;23.810;2022-12-10T03:53:43;94804.13;;;10.76;82.38
55466;BME280;41329;41.594;23.810;2022-12-10T03:56:08;94810.09;;;10.78;82.63
55466;BME280;41329;41.594;23.810;2022-12-10T03:58:34;94817.22;;;10.79;83.28
55466;BME280;41329;41.594;23.810;2022-12-10T04:00:59;94806.97;;;10.87;85.21
55466;BME280;41329;41.594;23.810;2022-12-10T04:03:25;94796.31;;;10.89;87.54
55466;BME280;41329;41.594;23.810;2022-12-10T04:05:50;94801.97;;;11.13;88.67
55466;BME280;41329;41.594;23.810;2022-12-10T04:08:15;94792.16;;;11.19;89.63
55466;BME280;41329;41.594;23.810;2022-12-10T04:10:41;94792.97;;;11.34;89.67
55466;BME280;41329;41.594;23.810;2022-12-10T04:13:06;94801.78;;;11.53;89.29
55466;BME280;41329;41.594;23.810;2022-12-10T04:15:50;94795.50;;;11.67;88.64
55466;BME280;41329;41.594;23.810;2022-12-10T04:18:34;94787.59;;;11.76;87.98
55466;BME280;41329;41.594;23.810;2022-12-10T04:21:00;94799.13;;;11.92;87.63
55466;BME280;41329;41.594;23.810;2022-12-10T04:23:44;94783.69;;;11.94;87.17
55466;BME280;41329;41.594;23.810;2022-12-10T04:26:28;94799.94;;;12.06;86.74
55466;BME280;41329;41.594;23.810;2022-12-10T04:29:12;94799.59;;;12.15;85.96
55466;BME280;41329;41.594;23.810;2022-12-10T04:31:37;94796.41;;;12.20;85.26
55466;BME280;41329;41.594;23.810;2022-12-10T04:34:02;94799.19;;;12.20;85.34
55466;BME280;41329;41.594;23.810;2022-12-10T04:36:28;94788.88;;;12.24;84.69
55466;BME280;41329;41.594;23.810;2022-12-10T04:38:53;94785.72;;;12.15;84.89
55466;BME280;41329;41.594;23.810;2022-12-10T04:41:19;94784.94;;;12.21;84.94
55466;BME280;41329;41.594;23.810;2022-12-10T04:43:44;94788.91;;;12.31;84.30
55466;BME280;41329;41.594;23.810;2022-12-10T04:46:10;94779.38;;;12.28;83.92
55466;BME280;41329;41.594;23.810;2022-12-10T04:48:35;94794.03;;;12.39;83.62
55466;BME280;41329;41.594;23.810;2022-12-10T04:51:02;94788.88;;;12.38;83.34
55466;BME280;41329;41.594;23.810;2022-12-10T04:53:27;94795.66;;;12.44;83.41
55466;BME280;41329;41.594;23.810;2022-12-10T04:55:53;94795.22;;;12.42;83.12
55466;BME280;41329;41.594;23.810;2022-12-10T04:58:18;94779.00;;;12.33;83.24
55466;BME280;41329;41.594;23.810;2022-12-10T05:00:44;94796.00;;;12.49;82.58
55466;BME280;41329;41.594;23.810;2022-12-10T05:03:09;94798.00;;;12.42;82.78
55466;BME280;41329;41.594;23.810;2022-12-10T05:05:35;94794.03;;;12.50;82.60
55466;BME280;41329;41.594;23.810;2022-12-10T05:08:00;94772.63;;;12.43;82.36
55466;BME280;41329;41.594;23.810;2022-12-10T05:10:26;94740.94;;;12.34;82.15
55466;BME280;41329;41.594;23.810;2022-12-10T05:12:52;94771.44;;;12.55;81.79
55466;BME280;41329;41.594;23.810;2022-12-10T05:15:17;94750.84;;;12.52;81.82
55466;BME280;41329;41.594;23.810;2022-12-10T05:17:43;94721.13;;;12.18;82.06
55466;BME280;41329;41.594;23.810;2022-12-10T05:20:09;94760.34;;;12.52;81.89
55466;BME280;41329;41.594;23.810;2022-12-10T05:22:34;94769.47;;;12.34;82.75
55466;BME280;41329;41.594;23.810;2022-12-10T05:25:29;94769.09;;;12.47;82.60
55466;BME280;41329;41.594;23.810;2022-12-10T05:27:54;94771.84;;;12.50;82.19
55466;BME280;41329;41.594;23.810;2022-12-10T05:30:20;94776.59;;;12.57;81.49
55466;BME280;41329;41.594;23.810;2022-12-10T05:32:45;94780.19;;;12.36;82.19
55466;BME280;41329;41.594;23.810;2022-12-10T05:35:10;94779.78;;;12.34;82.60
55466;BME280;41329;41.594;23.810;2022-12-10T05:37:36;94788.50;;;12.43;82.19
55466;BME280;41329;41.594;23.810;2022-12-10T05:40:02;94788.91;;;12.52;81.47
55466;BME280;41329;41.594;23.810;2022-12-10T05:42:28;94779.78;;;12.48;81.07
55466;BME280;41329;41.594;23.810;2022-12-10T05:44:53;94788.09;;;12.62;80.94
55466;BME280;41329;41.594;23.810;2022-12-10T05:47:18;94791.69;;;12.63;80.44
55466;BME280;41329;41.594;23.810;2022-12-10T05:49:44;94796.81;;;12.47;81.36
55466;BME280;41329;41.594;23.810;2022-12-10T05:52:09;94747.66;;;12.26;80.92
55466;BME280;41329;41.594;23.810;2022-12-10T05:54:35;94796.81;;;12.64;80.33
55466;BME280;41329;41.594;23.810;2022-12-10T05:57:00;94792.06;;;12.61;80.41
55466;BME280;41329;41.594;23.810;2022-12-10T05:59:26;94781.34;;;12.63;79.88
55466;BME280;41329;41.594;23.810;2022-12-10T06:01:51;94780.56;;;12.45;80.85
55466;BME280;41329;41.594;23.810;2022-12-10T06:04:17;94777.00;;;12.52;80.79
55466;BME280;41329;41.594;23.810;2022-12-10T06:06:42;94784.16;;;12.56;80.70
55466;BME280;41329;41.594;23.810;2022-12-10T06:09:11;94773.44;;;12.55;80.48
55466;BME280;41329;41.594;23.810;2022-12-10T06:11:37;94772.63;;;12.47;80.60
55466;BME280;41329;41.594;23.810;2022-12-10T06:14:02;94758.75;;;12.15;81.65
55466;BME280;41329;41.594;23.810;2022-12-10T06:16:28;94790.06;;;12.51;81.16
55466;BME280;41329;41.594;23.810;2022-12-10T06:18:55;94792.84;;;12.62;80.44
55466;BME280;41329;41.594;23.810;2022-12-10T06:21:21;94773.84;;;12.43;80.38
55466;BME280;41329;41.594;23.810;2022-12-10T06:23:47;94776.19;;;12.51;80.36
55466;BME280;41329;41.594;23.810;2022-12-10T06:26:16;94788.09;;;12.62;80.45
55466;BME280;41329;41.594;23.810;2022-12-10T06:28:44;94779.75;;;12.73;79.95
55466;BME280;41329;41.594;23.810;2022-12-10T06:31:10;94788.88;;;12.80;79.52
55466;BME280;41329;41.594;23.810;2022-12-10T06:33:35;94789.66;;;12.81;79.38
55466;BME280;41329;41.594;23.810;2022-12-10T06:36:04;94788.06;;;12.87;79.49
55466;BME280;41329;41.594;23.810;2022-12-10T06:38:30;94785.28;;;12.83;79.41
55466;BME280;41329;41.594;23.810;2022-12-10T06:40:56;94794.03;;;12.68;80.33
55466;BME280;41329;41.594;23.810;2022-12-10T06:43:21;94768.28;;;12.64;79.93
55466;BME280;41329;41.594;23.810;2022-12-10T06:45:46;94801.16;;;12.83;79.72
55466;BME280;41329;41.594;23.810;2022-12-10T06:48:12;94800.78;;;12.88;79.60
55466;BME280;41329;41.594;23.810;2022-12-10T06:50:37;94780.94;;;12.75;79.98
55466;BME280;41329;41.594;23.810;2022-12-10T06:53:03;94754.00;;;12.62;80.38
55466;BME280;41329;41.594;23.810;2022-12-10T06:55:29;94769.44;;;12.80;79.99
55466;BME280;41329;41.594;23.810;2022-12-10T06:57:54;94779.34;;;12.78;79.23
55466;BME280;41329;41.594;23.810;2022-12-10T07:00:20;94776.19;;;12.76;79.57
55466;BME280;41329;41.594;23.810;2022-12-10T07:02:46;94772.59;;;12.86;78.75
55466;BME280;41329;41.594;23.810;2022-12-10T07:05:12;94779.34;;;12.92;78.28
55466;BME280;41329;41.594;23.810;2022-12-10T07:07:38;94776.97;;;12.80;79.61
55466;BME280;41329;41.594;23.810;2022-12-10T07:10:04;94784.13;;;12.74;80.75
55466;BME280;41329;41.594;23.810;2022-12-10T07:12:30;94799.59;;;12.71;80.86
55466;BME280;41329;41.594;23.810;2022-12-10T07:14:55;94792.84;;;12.76;80.97
55466;BME280;41329;41.594;23.810;2022-12-10T07:17:21;94740.13;;;12.62;79.77
55466;BME280;41329;41.594;23.810;2022-12-10T07:19:46;94767.44;;;12.91;79.30
55466;BME280;41329;41.594;23.810;2022-12-10T07:22:11;94785.28;;;13.08;78.83
55466;BME280;41329;41.594;23.810;2022-12-10T07:24:37;94784.91;;;12.99;78.32
55466;BME280;41329;41.594;23.810;2022-12-10T07:27:06;94780.09;;;13.06;77.66
55466;BME280;41329;41.594;23.810;2022-12-10T07:29:32;94784.06;;;13.12;77.43
55466;BME280;41329;41.594;23.810;2022-12-10T07:31:58;94785.66;;;13.20;76.95
55466;BME280;41329;41.594;23.810;2022-12-10T07:34:23;94755.13;;;13.03;77.10
55466;BME280;41329;41.594;23.810;2022-12-10T07:36:48;94744.84;;;12.79;77.71
55466;BME280;41329;41.594;23.810;2022-12-10T07:39:14;94791.22;;;13.06;77.84
55466;BME280;41329;41.594;23.810;2022-12-10T07:41:49;94790.84;;;13.11;77.78
55466;BME280;41329;41.594;23.810;2022-12-10T07:44:16;94778.56;;;13.02;77.77
55466;BME280;41329;41.594;23.810;2022-12-10T07:46:43;94782.88;;;13.06;77.76
55466;BME280;41329;41.594;23.810;2022-12-10T07:49:09;94761.09;;;12.98;78.05
55466;BME280;41329;41.594;23.810;2022-12-10T07:51:35;94773.00;;;12.98;78.28
55466;BME280;41329;41.594;23.810;2022-12-10T07:54:00;94796.78;;;13.10;78.66
55466;BME280;41329;41.594;23.810;2022-12-10T07:56:26;94785.66;;;13.13;78.52
55466;BME280;41329;41.594;23.810;2022-12-10T07:58:52;94794.00;;;13.13;78.47
55466;BME280;41329;41.594;23.810;2022-12-10T08:01:21;94807.06;;;13.20;78.44
55466;BME280;41329;41.594;23.810;2022-12-10T08:03:47;94797.16;;;13.12;78.14
55466;BME280;41329;41.594;23.810;2022-12-10T08:06:18;94803.53;;;13.12;78.64
55466;BME280;41329;41.594;23.810;2022-12-10T08:08:44;94795.22;;;13.09;78.31
55466;BME280;41329;41.594;23.810;2022-12-10T08:11:11;94805.09;;;13.20;78.00
55466;BME280;41329;41.594;23.810;2022-12-10T08:13:38;94796.34;;;13.18;77.84
55466;BME280;41329;41.594;23.810;2022-12-10T08:16:10;94802.69;;;13.22;77.83
55466;BME280;41329;41.594;23.810;2022-12-10T08:18:38;94807.06;;;13.27;77.72
55466;BME280;41329;41.594;23.810;2022-12-10T08:21:12;94811.84;;;13.19;78.25
55466;BME280;41329;41.594;23.810;2022-12-10T08:23:39;94802.72;;;13.15;78.36
55466;BME280;41329;41.594;23.810;2022-12-10T08:26:06;94811.41;;;13.21;78.65
55466;BME280;41329;41.594;23.810;2022-12-10T08:28:32;94808.66;;;13.17;78.98
55466;BME280;41329;41.594;23.810;2022-12-10T08:30:58;94801.53;;;13.23;79.12
55466;BME280;41329;41.594;23.810;2022-12-10T08:33:23;94806.66;;;13.25;78.80
55466;BME280;41329;41.594;23.810;2022-12-10T08:35:49;94795.16;;;13.23;78.51
55466;BME280;41329;41.594;23.810;2022-12-10T08:38:14;94793.56;;;13.18;78.55
55466;BME280;41329;41.594;23.810;2022-12-10T08:40:41;94798.78;;;13.13;79.17
55466;BME280;41329;41.594;23.810;2022-12-10T08:43:07;94778.13;;;13.10;79.10
55466;BME280;41329;41.594;23.810;2022-12-10T08:45:32;94738.88;;;12.91;79.11
55466;BME280;41329;41.594;23.810;2022-12-10T08:47:57;94788.00;;;13.25;79.00
55466;BME280;41329;41.594;23.810;2022-12-10T08:50:23;94767.41;;;13.16;79.02
55466;BME280;41329;41.594;23.810;2022-12-10T08:52:48;94787.59;;;13.34;78.78
55466;BME280;41329;41.594;23.810;2022-12-10T08:55:14;94776.50;;;13.27;78.43
55466;BME280;41329;41.594;23.810;2022-12-10T08:57:39;94787.19;;;13.39;78.26
55466;BME280;41329;41.594;23.810;2022-12-10T09:00:05;94770.50;;;13.39;78.17
55466;BME280;41329;41.594;23.810;2022-12-10T09:02:31;94761.75;;;13.37;78.13
55466;BME280;41329;41.594;23.810;2022-12-10T09:04:56;94760.53;;;13.45;78.15
55466;BME280;41329;41.594;23.810;2022-12-10T09:07:22;94754.63;;;13.43;78.47
55466;BME280;41329;41.594;23.810;2022-12-10T09:09:47;94737.94;;;13.39;78.54
55466;BME280;41329;41.594;23.810;2022-12-10T09:12:13;94731.25;;;13.30;78.61
55466;BME280;41329;41.594;23.810;2022-12-10T09:14:38;94751.03;;;13.42;78.58
55466;BME280;41329;41.594;23.810;2022-12-10T09:17:05;94730.00;;;13.41;78.69
55466;BME280;41329;41.594;23.810;2022-12-10T09:19:31;94730.38;;;13.43;78.56
55466;BME280;41329;41.594;23.810;2022-12-10T09:21:56;94727.22;;;13.41;78.84
55466;BME280;41329;41.594;23.810;2022-12-10T09:24:22;94728.81;;;13.35;79.77
55466;BME280;41329;41.594;23.810;2022-12-10T09:26:47;94709.47;;;13.18;80.19
55466;BME280;41329;41.594;23.810;2022-12-10T09:29:13;94697.56;;;13.10;80.53
55466;BME280;41329;41.594;23.810;2022-12-10T09:31:38;94700.34;;;13.14;80.46
55466;BME280;41329;41.594;23.810;2022-12-10T09:34:04;94710.59;;;13.31;80.25
55466;BME280;41329;41.594;23.810;2022-12-10T09:36:29;94667.44;;;13.05;79.89
55466;BME280;41329;41.594;23.810;2022-12-10T09:38:55;94701.88;;;13.32;80.12
55466;BME280;41329;41.594;23.810;2022-12-10T09:41:36;94699.09;;;13.29;80.45
55466;BME280;41329;41.594;23.810;2022-12-10T09:46:55;94659.06;;;13.16;80.48
55466;BME280;41329;41.594;23.810;2022-12-10T09:52:24;94693.06;;;13.44;80.65
55466;BME280;41329;41.594;23.810;2022-12-10T09:55:29;94691.44;;;13.50;80.76
55466;BME280;41329;41.594;23.810;2022-12-10T09:57:57;94684.72;;;13.48;80.91
55466;BME280;41329;41.594;23.810;2022-12-10T10:00:34;94689.44;;;13.54;80.81
55466;BME280;41329;41.594;23.810;2022-12-10T10:03:01;94672.34;;;13.56;80.75
55466;BME280;41329;41.594;23.810;2022-12-10T10:05:31;94664.44;;;13.54;80.71
55466;BME280;41329;41.594;23.810;2022-12-10T10:08:05;94679.81;;;13.66;80.61
55466;BME280;41329;41.594;23.810;2022-12-10T10:10:34;94664.72;;;13.70;80.61
55466;BME280;41329;41.594;23.810;2022-12-10T10:15:34;94650.81;;;13.70;80.58
55466;BME280;41329;41.594;23.810;2022-12-10T10:18:16;94652.75;;;13.77;81.00
55466;BME280;41329;41.594;23.810;2022-12-10T10:20:45;94654.66;;;13.87;81.39
55466;BME280;41329;41.594;23.810;2022-12-10T10:23:13;94657.00;;;13.95;81.87
55466;BME280;41329;41.594;23.810;2022-12-10T10:25:39;94654.91;;;14.06;81.85
55466;BME280;41329;41.594;23.810;2022-12-10T10:28:05;94656.41;;;14.14;81.67
55466;BME280;41329;41.594;23.810;2022-12-10T10:30:30;94663.53;;;14.22;80.84
55466;BME280;41329;41.594;23.810;2022-12-10T10:32:57;94644.88;;;14.23;80.11
55466;BME280;41329;41.594;23.810;2022-12-10T10:35:26;94640.91;;;14.17;79.97
55466;BME280;41329;41.594;23.810;2022-12-10T10:37:57;94635.78;;;14.12;80.02
55466;BME280;41329;41.594;23.810;2022-12-10T10:40:40;94629.75;;;14.20;79.63
55466;BME280;41329;41.594;23.810;2022-12-10T10:43:06;94627.84;;;14.10;79.31
55466;BME280;41329;41.594;23.810;2022-12-10T10:45:40;94621.50;;;14.10;78.06
55466;BME280;41329;41.594;23.810;2022-12-10T10:48:18;94610.00;;;14.08;78.24
55466;BME280;41329;41.594;23.810;2022-12-10T10:50:48;94587.66;;;13.74;78.40
55466;BME280;41329;41.594;23.810;2022-12-10T10:53:49;94606.69;;;13.76;78.55
55466;BME280;41329;41.594;23.810;2022-12-10T10:56:37;94588.34;;;13.85;78.54
55466;BME280;41329;41.594;23.810;2022-12-10T10:59:07;94602.59;;;13.91;77.25
55466;BME280;41329;41.594;23.810;2022-12-10T11:01:52;94591.44;;;13.94;77.51
55466;BME280;41329;41.594;23.810;2022-12-10T11:04:23;94574.72;;;13.98;77.03
55466;BME280;41329;41.594;23.810;2022-12-10T11:06:53;94577.47;;;14.01;76.58
55466;BME280;41329;41.594;23.810;2022-12-10T11:09:32;94590.41;;;14.18;76.41
55466;BME280;41329;41.594;23.810;2022-12-10T11:12:07;94580.66;;;14.03;76.14
55466;BME280;41329;41.594;23.810;2022-12-10T11:14:45;94577.31;;;14.15;75.49
55466;BME280;41329;41.594;23.810;2022-12-10T11:19:54;94569.28;;;14.28;74.51
55466;BME280;41329;41.594;23.810;2022-12-10T11:22:28;94566.56;;;14.24;74.31
55466;BME280;41329;41.594;23.810;2022-12-10T11:24:54;94555.34;;;14.31;73.83
55466;BME280;41329;41.594;23.810;2022-12-10T11:27:48;94569.41;;;14.51;73.31
55466;BME280;41329;41.594;23.810;2022-12-10T11:30:22;94556.66;;;14.53;72.83
55466;BME280;41329;41.594;23.810;2022-12-10T11:46:25;94534.97;;;14.41;72.63
55466;BME280;41329;41.594;23.810;2022-12-10T11:51:46;94520.88;;;14.55;71.73
55466;BME280;41329;41.594;23.810;2022-12-10T11:57:20;94509.66;;;14.29;72.00
55466;BME280;41329;41.594;23.810;2022-12-10T12:10:46;94501.31;;;14.62;70.30
55466;BME280;41329;41.594;23.810;2022-12-10T12:18:26;94503.22;;;14.65;70.11
55466;BME280;41329;41.594;23.810;2022-12-10T12:20:58;94493.25;;;14.68;69.88
55466;BME280;41329;41.594;23.810;2022-12-10T12:23:32;94483.47;;;14.56;70.06
55466;BME280;41329;41.594;23.810;2022-12-10T12:26:10;94496.47;;;14.66;70.07
55466;BME280;41329;41.594;23.810;2022-12-10T12:28:45;94484.47;;;14.69;69.50
55466;BME280;41329;41.594;23.810;2022-12-10T12:31:38;94471.41;;;14.66;69.66
55466;BME280;41329;41.594;23.810;2022-12-10T12:34:33;94489.69;;;14.67;69.89
55466;BME280;41329;41.594;23.810;2022-12-10T12:37:02;94502.06;;;14.63;70.13
55466;BME280;41329;41.594;23.810;2022-12-10T12:39:46;94490.06;;;14.69;70.14
55466;BME280;41329;41.594;23.810;2022-12-10T12:42:17;94471.38;;;14.70;69.81
55466;BME280;41329;41.594;23.810;2022-12-10T12:45:22;94489.16;;;14.76;69.84
55466;BME280;41329;41.594;23.810;2022-12-10T12:48:09;94458.06;;;14.54;70.33
55466;BME280;41329;41.594;23.810;2022-12-10T12:53:11;94488.06;;;14.70;70.80
55466;BME280;41329;41.594;23.810;2022-12-10T12:55:59;94475.25;;;14.76;70.96
55466;BME280;41329;41.594;23.810;2022-12-10T12:58:33;94480.72;;;14.83;70.61
55466;BME280;41329;41.594;23.810;2022-12-10T13:01:35;94479.16;;;14.82;70.75
55466;BME280;41329;41.594;23.810;2022-12-10T13:04:03;94472.38;;;14.83;70.81
55466;BME280;41329;41.594;23.810;2022-12-10T13:06:32;94475.06;;;14.90;70.33
55466;BME280;41329;41.594;23.810;2022-12-10T13:11:39;94476.25;;;14.89;70.47
55466;BME280;41329;41.594;23.810;2022-12-10T13:22:02;94461.47;;;14.65;71.20
55466;BME280;41329;41.594;23.810;2022-12-10T13:27:15;94465.19;;;14.55;71.94
55466;BME280;41329;41.594;23.810;2022-12-10T13:30:00;94466.44;;;14.51;72.26
55466;BME280;41329;41.594;23.810;2022-12-10T13:43:38;94482.44;;;14.43;73.58
55466;BME280;41329;41.594;23.810;2022-12-10T13:46:34;94466.41;;;14.24;73.97
55466;BME280;41329;41.594;23.810;2022-12-10T13:49:02;94443.16;;;14.04;74.61
55466;BME280;41329;41.594;23.810;2022-12-10T13:56:40;94499.00;;;14.20;75.62
55466;BME280;41329;41.594;23.810;2022-12-10T13:59:23;94477.13;;;14.22;75.21
55466;BME280;41329;41.594;23.810;2022-12-10T14:07:11;94471.50;;;14.29;76.09
55466;BME280;41329;41.594;23.810;2022-12-10T14:09:50;94481.75;;;14.36;75.92
55466;BME280;41329;41.594;23.810;2022-12-10T14:12:19;94478.97;;;14.36;75.74
55466;BME280;41329;41.594;23.810;2022-12-10T14:14:55;94462.34;;;14.29;75.62
55466;BME280;41329;41.594;23.810;2022-12-10T14:17:24;94467.44;;;14.34;75.84
55466;BME280;41329;41.594;23.810;2022-12-10T14:19:55;94473.75;;;14.38;75.91
55466;BME280;41329;41.594;23.810;2022-12-10T14:22:45;94467.84;;;14.36;76.04
55466;BME280;41329;41.594;23.810;2022-12-10T14:25:15;94462.75;;;14.31;75.82
55466;BME280;41329;41.594;23.810;2022-12-10T14:27:40;94456.72;;;14.32;75.90
55466;BME280;41329;41.594;23.810;2022-12-10T14:30:15;94445.66;;;14.29;75.94
55466;BME280;41329;41.594;23.810;2022-12-10T14:32:41;94453.53;;;14.34;76.08
55466;BME280;41329;41.594;23.810;2022-12-10T14:35:22;94420.28;;;14.23;75.71
55466;BME280;41329;41.594;23.810;2022-12-10T14:37:49;94426.59;;;14.27;76.15
55466;BME280;41329;41.594;23.810;2022-12-10T14:40:28;94439.34;;;14.25;76.62